sensor_id;sensor_type;location;lat;lon;timestamp;P1;durP1;ratioP1;P2;durP2;ratioP2
54787;SDS011;59598;48.112;16.280;2023-08-31T00:02:08;1.52;;;1.42;;
54787;SDS011;59598;48.112;16.280;2023-08-31T00:04:42;1.90;;;1.70;;
54787;SDS011;59598;48.112;16.280;2023-08-31T00:07:13;1.70;;;1.60;;
54787;SDS011;59598;48.112;16.280;2023-08-31T00:09:47;2.08;;;1.80;;
54787;SDS011;59598;48.112;16.280;2023-08-31T00:12:18;1.77;;;1.67;;
54787;SDS011;59598;48.112;16.280;2023-08-31T00:17:24;1.98;;;1.52;;
54787;SDS011;59598;48.112;16.280;2023-08-31T00:19:55;1.67;;;1.58;;
54787;SDS011;59598;48.112;16.280;2023-08-31T00:22:29;1.98;;;1.85;;
54787;SDS011;59598;48.112;16.280;2023-08-31T00:25:05;2.00;;;1.90;;
54787;SDS011;59598;48.112;16.280;2023-08-31T00:27:41;1.77;;;1.67;;
54787;SDS011;59598;48.112;16.280;2023-08-31T00:30:17;2.75;;;2.10;;
54787;SDS011;59598;48.112;16.280;2023-08-31T00:32:51;2.13;;;1.92;;
54787;SDS011;59598;48.112;16.280;2023-08-31T00:35:24;2.28;;;1.58;;
54787;SDS011;59598;48.112;16.280;2023-08-31T00:37:55;1.60;;;1.50;;
54787;SDS011;59598;48.112;16.280;2023-08-31T00:40:29;3.55;;;1.90;;
54787;SDS011;59598;48.112;16.280;2023-08-31T00:43:05;2.67;;;2.13;;
54787;SDS011;59598;48.112;16.280;2023-08-31T00:45:38;2.22;;;1.70;;
54787;SDS011;59598;48.112;16.280;2023-08-31T00:48:11;2.10;;;1.90;;
54787;SDS011;59598;48.112;16.280;2023-08-31T00:50:47;1.90;;;1.80;;
54787;SDS011;59598;48.112;16.280;2023-08-31T00:53:19;2.10;;;2.00;;
54787;SDS011;59598;48.112;16.280;2023-08-31T00:55:51;1.63;;;1.52;;
54787;SDS011;59598;48.112;16.280;2023-08-31T00:58:22;2.00;;;1.70;;
54787;SDS011;59598;48.112;16.280;2023-08-31T01:01:30;2.67;;;2.10;;
54787;SDS011;59598;48.112;16.280;2023-08-31T01:04:34;1.88;;;1.77;;
54787;SDS011;59598;48.112;16.280;2023-08-31T01:07:32;3.85;;;1.60;;
54787;SDS011;59598;48.112;16.280;2023-08-31T01:15:34;1.80;;;1.70;;
54787;SDS011;59598;48.112;16.280;2023-08-31T01:18:08;2.03;;;1.80;;
54787;SDS011;59598;48.112;16.280;2023-08-31T01:23:46;2.03;;;1.83;;
54787;SDS011;59598;48.112;16.280;2023-08-31T01:26:26;2.30;;;2.08;;
54787;SDS011;59598;48.112;16.280;2023-08-31T01:28:58;2.30;;;2.10;;
54787;SDS011;59598;48.112;16.280;2023-08-31T01:31:30;2.03;;;1.83;;
54787;SDS011;59598;48.112;16.280;2023-08-31T01:34:02;2.13;;;1.95;;
54787;SDS011;59598;48.112;16.280;2023-08-31T01:36:36;2.88;;;2.58;;
54787;SDS011;59598;48.112;16.280;2023-08-31T01:39:19;2.50;;;2.30;;
54787;SDS011;59598;48.112;16.280;2023-08-31T01:42:09;2.97;;;2.33;;
54787;SDS011;59598;48.112;16.280;2023-08-31T01:44:46;2.30;;;2.10;;
54787;SDS011;59598;48.112;16.280;2023-08-31T01:47:20;2.70;;;2.50;;
54787;SDS011;59598;48.112;16.280;2023-08-31T01:49:54;3.03;;;2.47;;
54787;SDS011;59598;48.112;16.280;2023-08-31T01:55:55;2.45;;;2.25;;
54787;SDS011;59598;48.112;16.280;2023-08-31T01:58:26;2.58;;;2.38;;
54787;SDS011;59598;48.112;16.280;2023-08-31T02:00:59;2.85;;;2.58;;
54787;SDS011;59598;48.112;16.280;2023-08-31T02:03:31;2.83;;;2.63;;
54787;SDS011;59598;48.112;16.280;2023-08-31T02:06:03;3.13;;;2.67;;
54787;SDS011;59598;48.112;16.280;2023-08-31T02:08:35;2.53;;;2.33;;
54787;SDS011;59598;48.112;16.280;2023-08-31T02:11:06;2.50;;;2.20;;
54787;SDS011;59598;48.112;16.280;2023-08-31T02:13:37;3.50;;;2.50;;
54787;SDS011;59598;48.112;16.280;2023-08-31T02:16:09;2.55;;;2.20;;
54787;SDS011;59598;48.112;16.280;2023-08-31T02:18:43;2.63;;;2.28;;
54787;SDS011;59598;48.112;16.280;2023-08-31T02:21:16;2.85;;;2.65;;
54787;SDS011;59598;48.112;16.280;2023-08-31T02:23:51;2.47;;;2.28;;
54787;SDS011;59598;48.112;16.280;2023-08-31T02:26:22;2.75;;;2.33;;
54787;SDS011;59598;48.112;16.280;2023-08-31T02:28:58;2.75;;;2.17;;
54787;SDS011;59598;48.112;16.280;2023-08-31T02:31:33;2.30;;;2.10;;
54787;SDS011;59598;48.112;16.280;2023-08-31T02:34:09;2.35;;;2.15;;
54787;SDS011;59598;48.112;16.280;2023-08-31T02:36:41;2.83;;;2.63;;
54787;SDS011;59598;48.112;16.280;2023-08-31T02:39:19;3.13;;;2.75;;
54787;SDS011;59598;48.112;16.280;2023-08-31T02:41:51;2.78;;;2.58;;
54787;SDS011;59598;48.112;16.280;2023-08-31T02:44:26;2.70;;;2.47;;
54787;SDS011;59598;48.112;16.280;2023-08-31T02:46:57;2.55;;;2.30;;
54787;SDS011;59598;48.112;16.280;2023-08-31T02:49:31;2.55;;;2.35;;
54787;SDS011;59598;48.112;16.280;2023-08-31T02:52:07;2.72;;;2.53;;
54787;SDS011;59598;48.112;16.280;2023-08-31T02:54:45;2.35;;;1.88;;
54787;SDS011;59598;48.112;16.280;2023-08-31T02:57:19;2.70;;;2.33;;
54787;SDS011;59598;48.112;16.280;2023-08-31T02:59:54;2.00;;;1.90;;
54787;SDS011;59598;48.112;16.280;2023-08-31T03:02:28;2.00;;;1.90;;
54787;SDS011;59598;48.112;16.280;2023-08-31T03:08:28;2.00;;;1.80;;
54787;SDS011;59598;48.112;16.280;2023-08-31T03:11:04;1.98;;;1.80;;
54787;SDS011;59598;48.112;16.280;2023-08-31T03:13:36;3.28;;;1.60;;
54787;SDS011;59598;48.112;16.280;2023-08-31T03:16:07;1.65;;;1.55;;
54787;SDS011;59598;48.112;16.280;2023-08-31T03:18:44;2.97;;;1.65;;
54787;SDS011;59598;48.112;16.280;2023-08-31T03:21:17;2.17;;;1.90;;
54787;SDS011;59598;48.112;16.280;2023-08-31T03:23:49;2.00;;;1.67;;
54787;SDS011;59598;48.112;16.280;2023-08-31T03:26:21;3.13;;;1.40;;
54787;SDS011;59598;48.112;16.280;2023-08-31T03:28:52;1.58;;;1.48;;
54787;SDS011;59598;48.112;16.280;2023-08-31T03:31:27;1.60;;;1.50;;
54787;SDS011;59598;48.112;16.280;2023-08-31T03:34:02;2.45;;;1.77;;
54787;SDS011;59598;48.112;16.280;2023-08-31T03:36:34;1.60;;;1.48;;
54787;SDS011;59598;48.112;16.280;2023-08-31T03:39:07;1.48;;;1.38;;
54787;SDS011;59598;48.112;16.280;2023-08-31T03:41:39;1.42;;;1.33;;
54787;SDS011;59598;48.112;16.280;2023-08-31T03:44:11;1.52;;;1.42;;
54787;SDS011;59598;48.112;16.280;2023-08-31T03:46:42;1.80;;;1.42;;
54787;SDS011;59598;48.112;16.280;2023-08-31T03:49:14;1.95;;;1.55;;
54787;SDS011;59598;48.112;16.280;2023-08-31T03:51:45;2.08;;;1.42;;
54787;SDS011;59598;48.112;16.280;2023-08-31T03:57:44;1.55;;;1.30;;
54787;SDS011;59598;48.112;16.280;2023-08-31T04:00:18;2.00;;;1.80;;
54787;SDS011;59598;48.112;16.280;2023-08-31T04:02:52;1.92;;;1.60;;
54787;SDS011;59598;48.112;16.280;2023-08-31T04:05:25;1.60;;;1.50;;
54787;SDS011;59598;48.112;16.280;2023-08-31T04:07:56;2.35;;;1.67;;
54787;SDS011;59598;48.112;16.280;2023-08-31T04:10:29;1.73;;;1.45;;
54787;SDS011;59598;48.112;16.280;2023-08-31T04:13:05;1.77;;;1.67;;
54787;SDS011;59598;48.112;16.280;2023-08-31T04:15:36;1.42;;;1.33;;
54787;SDS011;59598;48.112;16.280;2023-08-31T04:18:07;1.30;;;1.20;;
54787;SDS011;59598;48.112;16.280;2023-08-31T04:20:53;1.53;;;1.43;;
54787;SDS011;59598;48.112;16.280;2023-08-31T04:23:29;1.60;;;1.50;;
54787;SDS011;59598;48.112;16.280;2023-08-31T04:26:09;1.63;;;1.52;;
54787;SDS011;59598;48.112;16.280;2023-08-31T04:28:44;1.30;;;1.20;;
54787;SDS011;59598;48.112;16.280;2023-08-31T04:31:18;1.60;;;1.50;;
54787;SDS011;59598;48.112;16.280;2023-08-31T04:33:49;1.42;;;1.27;;
54787;SDS011;59598;48.112;16.280;2023-08-31T04:36:24;1.40;;;1.30;;
54787;SDS011;59598;48.112;16.280;2023-08-31T04:38:59;1.45;;;1.35;;
54787;SDS011;59598;48.112;16.280;2023-08-31T04:41:35;1.40;;;1.30;;
54787;SDS011;59598;48.112;16.280;2023-08-31T04:44:09;1.40;;;1.30;;
54787;SDS011;59598;48.112;16.280;2023-08-31T04:46:41;1.50;;;1.40;;
54787;SDS011;59598;48.112;16.280;2023-08-31T04:49:15;5.35;;;1.65;;
54787;SDS011;59598;48.112;16.280;2023-08-31T04:51:51;1.55;;;1.45;;
54787;SDS011;59598;48.112;16.280;2023-08-31T04:54:25;1.33;;;1.20;;
54787;SDS011;59598;48.112;16.280;2023-08-31T04:56:58;1.42;;;1.23;;
54787;SDS011;59598;48.112;16.280;2023-08-31T04:59:34;1.20;;;1.20;;
54787;SDS011;59598;48.112;16.280;2023-08-31T05:02:08;1.38;;;1.27;;
54787;SDS011;59598;48.112;16.280;2023-08-31T05:08:08;1.30;;;1.20;;
54787;SDS011;59598;48.112;16.280;2023-08-31T05:10:40;2.70;;;1.48;;
54787;SDS011;59598;48.112;16.280;2023-08-31T05:13:17;1.42;;;1.33;;
54787;SDS011;59598;48.112;16.280;2023-08-31T05:15:51;1.45;;;1.35;;
54787;SDS011;59598;48.112;16.280;2023-08-31T05:18:26;1.33;;;1.23;;
54787;SDS011;59598;48.112;16.280;2023-08-31T05:21:04;1.30;;;1.20;;
54787;SDS011;59598;48.112;16.280;2023-08-31T05:23:41;1.45;;;1.35;;
54787;SDS011;59598;48.112;16.280;2023-08-31T05:26:18;1.50;;;1.40;;
54787;SDS011;59598;48.112;16.280;2023-08-31T05:28:50;1.33;;;1.30;;
54787;SDS011;59598;48.112;16.280;2023-08-31T05:31:21;2.00;;;1.35;;
54787;SDS011;59598;48.112;16.280;2023-08-31T05:33:55;1.30;;;1.20;;
54787;SDS011;59598;48.112;16.280;2023-08-31T05:36:29;1.40;;;1.30;;
54787;SDS011;59598;48.112;16.280;2023-08-31T05:39:00;1.30;;;1.20;;
54787;SDS011;59598;48.112;16.280;2023-08-31T05:41:35;1.40;;;1.30;;
54787;SDS011;59598;48.112;16.280;2023-08-31T05:45:34;1.17;;;1.15;;
54787;SDS011;59598;48.112;16.280;2023-08-31T05:49:22;1.20;;;1.20;;
54787;SDS011;59598;48.112;16.280;2023-08-31T05:51:54;2.50;;;1.00;;
54787;SDS011;59598;48.112;16.280;2023-08-31T05:54:28;1.10;;;1.10;;
54787;SDS011;59598;48.112;16.280;2023-08-31T05:56:59;1.52;;;1.30;;
54787;SDS011;59598;48.112;16.280;2023-08-31T06:02:05;1.45;;;1.30;;
54787;SDS011;59598;48.112;16.280;2023-08-31T06:07:10;1.52;;;1.42;;
54787;SDS011;59598;48.112;16.280;2023-08-31T06:09:44;1.40;;;1.30;;
54787;SDS011;59598;48.112;16.280;2023-08-31T06:12:15;1.17;;;1.10;;
54787;SDS011;59598;48.112;16.280;2023-08-31T06:14:53;1.65;;;1.30;;
54787;SDS011;59598;48.112;16.280;2023-08-31T06:17:28;1.60;;;1.50;;
54787;SDS011;59598;48.112;16.280;2023-08-31T06:20:02;1.40;;;1.30;;
54787;SDS011;59598;48.112;16.280;2023-08-31T06:22:37;1.30;;;1.20;;
54787;SDS011;59598;48.112;16.280;2023-08-31T06:25:08;2.72;;;1.27;;
54787;SDS011;59598;48.112;16.280;2023-08-31T06:27:41;1.67;;;1.10;;
54787;SDS011;59598;48.112;16.280;2023-08-31T06:30:17;1.38;;;1.27;;
54787;SDS011;59598;48.112;16.280;2023-08-31T06:32:51;1.15;;;1.05;;
54787;SDS011;59598;48.112;16.280;2023-08-31T06:35:24;1.20;;;1.10;;
54787;SDS011;59598;48.112;16.280;2023-08-31T06:37:55;1.02;;;1.00;;
54787;SDS011;59598;48.112;16.280;2023-08-31T06:40:26;1.33;;;1.23;;
54787;SDS011;59598;48.112;16.280;2023-08-31T06:42:57;2.92;;;1.00;;
54787;SDS011;59598;48.112;16.280;2023-08-31T06:45:29;1.35;;;1.25;;
54787;SDS011;59598;48.112;16.280;2023-08-31T06:48:03;1.58;;;1.48;;
54787;SDS011;59598;48.112;16.280;2023-08-31T06:50:34;1.33;;;1.00;;
54787;SDS011;59598;48.112;16.280;2023-08-31T06:53:14;7.60;;;1.88;;
54787;SDS011;59598;48.112;16.280;2023-08-31T06:55:48;1.50;;;1.40;;
54787;SDS011;59598;48.112;16.280;2023-08-31T06:58:20;2.08;;;1.70;;
54787;SDS011;59598;48.112;16.280;2023-08-31T07:00:53;1.48;;;1.15;;
54787;SDS011;59598;48.112;16.280;2023-08-31T07:03:27;3.95;;;1.50;;
54787;SDS011;59598;48.112;16.280;2023-08-31T07:05:58;2.00;;;1.45;;
54787;SDS011;59598;48.112;16.280;2023-08-31T07:08:30;1.17;;;1.17;;
54787;SDS011;59598;48.112;16.280;2023-08-31T07:11:01;1.38;;;1.20;;
54787;SDS011;59598;48.112;16.280;2023-08-31T07:13:35;1.40;;;1.30;;
54787;SDS011;59598;48.112;16.280;2023-08-31T07:16:06;1.50;;;1.40;;
54787;SDS011;59598;48.112;16.280;2023-08-31T07:18:38;1.30;;;1.20;;
54787;SDS011;59598;48.112;16.280;2023-08-31T07:21:09;1.38;;;1.27;;
54787;SDS011;59598;48.112;16.280;2023-08-31T07:23:42;1.80;;;1.45;;
54787;SDS011;59598;48.112;16.280;2023-08-31T07:26:15;1.60;;;1.50;;
54787;SDS011;59598;48.112;16.280;2023-08-31T07:28:47;1.50;;;1.40;;
54787;SDS011;59598;48.112;16.280;2023-08-31T07:31:18;2.58;;;1.60;;
54787;SDS011;59598;48.112;16.280;2023-08-31T07:33:52;1.30;;;1.20;;
54787;SDS011;59598;48.112;16.280;2023-08-31T07:36:26;1.73;;;1.60;;
54787;SDS011;59598;48.112;16.280;2023-08-31T07:39:00;1.70;;;1.50;;
54787;SDS011;59598;48.112;16.280;2023-08-31T07:41:31;1.27;;;1.17;;
54787;SDS011;59598;48.112;16.280;2023-08-31T07:44:02;1.33;;;1.23;;
54787;SDS011;59598;48.112;16.280;2023-08-31T07:46:34;1.45;;;1.35;;
54787;SDS011;59598;48.112;16.280;2023-08-31T07:49:07;1.60;;;1.50;;
54787;SDS011;59598;48.112;16.280;2023-08-31T07:51:39;1.50;;;1.40;;
54787;SDS011;59598;48.112;16.280;2023-08-31T07:54:10;1.98;;;1.35;;
54787;SDS011;59598;48.112;16.280;2023-08-31T07:59:26;1.95;;;1.50;;
54787;SDS011;59598;48.112;16.280;2023-08-31T08:01:58;2.55;;;1.67;;
54787;SDS011;59598;48.112;16.280;2023-08-31T08:04:31;1.40;;;1.30;;
54787;SDS011;59598;48.112;16.280;2023-08-31T08:07:03;1.80;;;1.70;;
54787;SDS011;59598;48.112;16.280;2023-08-31T08:09:35;1.50;;;1.40;;
54787;SDS011;59598;48.112;16.280;2023-08-31T08:12:06;2.63;;;1.73;;
54787;SDS011;59598;48.112;16.280;2023-08-31T08:14:41;1.58;;;1.40;;
54787;SDS011;59598;48.112;16.280;2023-08-31T08:17:13;2.42;;;1.58;;
54787;SDS011;59598;48.112;16.280;2023-08-31T08:19:45;1.50;;;1.40;;
54787;SDS011;59598;48.112;16.280;2023-08-31T08:22:17;1.77;;;1.67;;
54787;SDS011;59598;48.112;16.280;2023-08-31T08:24:48;1.88;;;1.45;;
54787;SDS011;59598;48.112;16.280;2023-08-31T08:27:19;1.50;;;1.40;;
54787;SDS011;59598;48.112;16.280;2023-08-31T08:29:55;2.55;;;1.75;;
54787;SDS011;59598;48.112;16.280;2023-08-31T08:32:26;1.58;;;1.48;;
54787;SDS011;59598;48.112;16.280;2023-08-31T08:34:58;2.10;;;1.80;;
54787;SDS011;59598;48.112;16.280;2023-08-31T08:37:29;1.40;;;1.30;;
54787;SDS011;59598;48.112;16.280;2023-08-31T08:40:04;1.30;;;1.20;;
54787;SDS011;59598;48.112;16.280;2023-08-31T08:42:38;3.95;;;1.40;;
54787;SDS011;59598;48.112;16.280;2023-08-31T08:45:15;1.55;;;1.45;;
54787;SDS011;59598;48.112;16.280;2023-08-31T08:47:46;1.40;;;1.30;;
54787;SDS011;59598;48.112;16.280;2023-08-31T08:50:18;5.43;;;1.67;;
54787;SDS011;59598;48.112;16.280;2023-08-31T08:52:56;2.17;;;1.45;;
54787;SDS011;59598;48.112;16.280;2023-08-31T08:55:30;1.60;;;1.50;;
54787;SDS011;59598;48.112;16.280;2023-08-31T08:58:01;1.48;;;1.10;;
54787;SDS011;59598;48.112;16.280;2023-08-31T09:00:38;1.35;;;1.25;;
54787;SDS011;59598;48.112;16.280;2023-08-31T09:03:11;1.63;;;1.15;;
54787;SDS011;59598;48.112;16.280;2023-08-31T09:05:42;1.30;;;1.20;;
54787;SDS011;59598;48.112;16.280;2023-08-31T09:08:14;1.92;;;1.30;;
54787;SDS011;59598;48.112;16.280;2023-08-31T09:10:46;2.42;;;1.50;;
54787;SDS011;59598;48.112;16.280;2023-08-31T09:13:17;1.35;;;1.10;;
54787;SDS011;59598;48.112;16.280;2023-08-31T09:15:48;1.27;;;1.17;;
54787;SDS011;59598;48.112;16.280;2023-08-31T09:18:30;1.42;;;1.33;;
54787;SDS011;59598;48.112;16.280;2023-08-31T09:21:03;1.27;;;1.17;;
54787;SDS011;59598;48.112;16.280;2023-08-31T09:23:35;1.70;;;1.50;;
54787;SDS011;59598;48.112;16.280;2023-08-31T09:26:06;1.33;;;1.23;;
54787;SDS011;59598;48.112;16.280;2023-08-31T09:28:42;1.30;;;1.05;;
54787;SDS011;59598;48.112;16.280;2023-08-31T09:31:14;1.48;;;1.38;;
54787;SDS011;59598;48.112;16.280;2023-08-31T09:33:52;1.13;;;1.02;;
54787;SDS011;59598;48.112;16.280;2023-08-31T09:36:26;1.00;;;1.00;;
54787;SDS011;59598;48.112;16.280;2023-08-31T09:39:00;1.45;;;1.35;;
54787;SDS011;59598;48.112;16.280;2023-08-31T09:41:35;1.35;;;1.25;;
54787;SDS011;59598;48.112;16.280;2023-08-31T09:44:24;0.93;;;0.93;;
54787;SDS011;59598;48.112;16.280;2023-08-31T09:46:55;1.15;;;0.90;;
54787;SDS011;59598;48.112;16.280;2023-08-31T09:49:34;1.30;;;1.10;;
54787;SDS011;59598;48.112;16.280;2023-08-31T09:52:09;0.93;;;0.93;;
54787;SDS011;59598;48.112;16.280;2023-08-31T09:54:44;1.88;;;1.30;;
54787;SDS011;59598;48.112;16.280;2023-08-31T09:57:18;1.25;;;1.25;;
54787;SDS011;59598;48.112;16.280;2023-08-31T09:59:52;1.20;;;1.20;;
54787;SDS011;59598;48.112;16.280;2023-08-31T10:02:24;0.80;;;0.80;;
54787;SDS011;59598;48.112;16.280;2023-08-31T10:04:57;1.30;;;1.20;;
54787;SDS011;59598;48.112;16.280;2023-08-31T10:07:33;1.38;;;0.88;;
54787;SDS011;59598;48.112;16.280;2023-08-31T10:10:11;1.10;;;1.05;;
54787;SDS011;59598;48.112;16.280;2023-08-31T10:12:44;0.93;;;0.93;;
54787;SDS011;59598;48.112;16.280;2023-08-31T10:15:18;1.15;;;1.10;;
54787;SDS011;59598;48.112;16.280;2023-08-31T10:17:51;2.20;;;1.13;;
54787;SDS011;59598;48.112;16.280;2023-08-31T10:20:22;1.08;;;1.08;;
54787;SDS011;59598;48.112;16.280;2023-08-31T10:23:05;0.98;;;0.98;;
54787;SDS011;59598;48.112;16.280;2023-08-31T10:25:59;1.77;;;1.10;;
54787;SDS011;59598;48.112;16.280;2023-08-31T10:28:40;1.50;;;1.30;;
54787;SDS011;59598;48.112;16.280;2023-08-31T10:31:18;0.95;;;0.95;;
54787;SDS011;59598;48.112;16.280;2023-08-31T10:36:36;1.02;;;1.00;;
54787;SDS011;59598;48.112;16.280;2023-08-31T10:39:15;1.20;;;1.10;;
54787;SDS011;59598;48.112;16.280;2023-08-31T10:41:54;1.02;;;1.02;;
54787;SDS011;59598;48.112;16.280;2023-08-31T10:44:34;1.00;;;1.00;;
54787;SDS011;59598;48.112;16.280;2023-08-31T10:47:07;1.02;;;0.98;;
54787;SDS011;59598;48.112;16.280;2023-08-31T10:49:39;1.02;;;1.00;;
54787;SDS011;59598;48.112;16.280;2023-08-31T10:52:22;1.27;;;1.10;;
54787;SDS011;59598;48.112;16.280;2023-08-31T10:54:54;0.90;;;0.90;;
54787;SDS011;59598;48.112;16.280;2023-08-31T10:57:29;1.95;;;1.02;;
54787;SDS011;59598;48.112;16.280;2023-08-31T11:00:04;1.70;;;1.02;;
54787;SDS011;59598;48.112;16.280;2023-08-31T11:02:42;1.20;;;1.10;;
54787;SDS011;59598;48.112;16.280;2023-08-31T11:05:17;1.42;;;1.02;;
54787;SDS011;59598;48.112;16.280;2023-08-31T11:10:23;1.87;;;1.13;;
54787;SDS011;59598;48.112;16.280;2023-08-31T11:12:57;2.03;;;1.05;;
54787;SDS011;59598;48.112;16.280;2023-08-31T11:15:30;1.08;;;1.00;;
54787;SDS011;59598;48.112;16.280;2023-08-31T11:18:02;1.63;;;1.45;;
54787;SDS011;59598;48.112;16.280;2023-08-31T11:20:38;1.05;;;0.95;;
54787;SDS011;59598;48.112;16.280;2023-08-31T11:23:09;1.10;;;1.00;;
54787;SDS011;59598;48.112;16.280;2023-08-31T11:25:41;1.10;;;1.05;;
54787;SDS011;59598;48.112;16.280;2023-08-31T11:28:14;1.08;;;0.98;;
54787;SDS011;59598;48.112;16.280;2023-08-31T11:33:20;1.75;;;1.17;;
54787;SDS011;59598;48.112;16.280;2023-08-31T11:35:52;1.65;;;1.08;;
54787;SDS011;59598;48.112;16.280;2023-08-31T11:38:24;1.52;;;1.20;;
54787;SDS011;59598;48.112;16.280;2023-08-31T11:41:00;1.15;;;1.05;;
54787;SDS011;59598;48.112;16.280;2023-08-31T11:43:35;1.40;;;1.05;;
54787;SDS011;59598;48.112;16.280;2023-08-31T11:46:07;1.05;;;0.85;;
54787;SDS011;59598;48.112;16.280;2023-08-31T11:48:42;1.27;;;1.17;;
54787;SDS011;59598;48.112;16.280;2023-08-31T11:51:14;1.50;;;1.40;;
54787;SDS011;59598;48.112;16.280;2023-08-31T11:53:50;1.58;;;1.00;;
54787;SDS011;59598;48.112;16.280;2023-08-31T11:56:24;1.38;;;1.20;;
54787;SDS011;59598;48.112;16.280;2023-08-31T11:58:55;0.95;;;0.95;;
54787;SDS011;59598;48.112;16.280;2023-08-31T12:01:29;1.33;;;1.23;;
54787;SDS011;59598;48.112;16.280;2023-08-31T12:04:08;1.15;;;1.00;;
54787;SDS011;59598;48.112;16.280;2023-08-31T12:06:41;1.52;;;1.42;;
54787;SDS011;59598;48.112;16.280;2023-08-31T12:09:16;1.02;;;0.93;;
54787;SDS011;59598;48.112;16.280;2023-08-31T12:11:50;1.15;;;1.13;;
54787;SDS011;59598;48.112;16.280;2023-08-31T12:14:23;1.23;;;1.13;;
54787;SDS011;59598;48.112;16.280;2023-08-31T12:17:03;1.40;;;1.20;;
54787;SDS011;59598;48.112;16.280;2023-08-31T12:19:38;0.70;;;0.70;;
54787;SDS011;59598;48.112;16.280;2023-08-31T12:22:10;0.95;;;0.90;;
54787;SDS011;59598;48.112;16.280;2023-08-31T12:24:45;0.85;;;0.85;;
54787;SDS011;59598;48.112;16.280;2023-08-31T12:27:16;0.90;;;0.90;;
54787;SDS011;59598;48.112;16.280;2023-08-31T12:29:47;1.20;;;1.13;;
54787;SDS011;59598;48.112;16.280;2023-08-31T12:32:23;2.17;;;1.10;;
54787;SDS011;59598;48.112;16.280;2023-08-31T12:34:56;0.90;;;0.90;;
54787;SDS011;59598;48.112;16.280;2023-08-31T12:37:34;1.98;;;1.30;;
54787;SDS011;59598;48.112;16.280;2023-08-31T12:40:05;0.95;;;0.85;;
54787;SDS011;59598;48.112;16.280;2023-08-31T12:42:37;1.23;;;1.13;;
54787;SDS011;59598;48.112;16.280;2023-08-31T12:45:10;2.87;;;1.20;;
54787;SDS011;59598;48.112;16.280;2023-08-31T12:47:44;1.17;;;1.08;;
54787;SDS011;59598;48.112;16.280;2023-08-31T12:50:16;2.13;;;1.00;;
54787;SDS011;59598;48.112;16.280;2023-08-31T12:52:47;2.10;;;1.10;;
54787;SDS011;59598;48.112;16.280;2023-08-31T12:55:21;1.00;;;0.80;;
54787;SDS011;59598;48.112;16.280;2023-08-31T12:57:52;1.88;;;1.00;;
54787;SDS011;59598;48.112;16.280;2023-08-31T13:00:23;1.05;;;1.02;;
54787;SDS011;59598;48.112;16.280;2023-08-31T13:02:55;1.58;;;1.13;;
54787;SDS011;59598;48.112;16.280;2023-08-31T13:05:26;1.20;;;1.02;;
54787;SDS011;59598;48.112;16.280;2023-08-31T13:07:59;2.60;;;1.05;;
54787;SDS011;59598;48.112;16.280;2023-08-31T13:10:31;3.55;;;1.10;;
54787;SDS011;59598;48.112;16.280;2023-08-31T13:13:04;1.42;;;0.93;;
54787;SDS011;59598;48.112;16.280;2023-08-31T13:15:36;2.63;;;0.90;;
54787;SDS011;59598;48.112;16.280;2023-08-31T13:18:07;2.03;;;1.10;;
54787;SDS011;59598;48.112;16.280;2023-08-31T13:20:38;1.02;;;0.93;;
54787;SDS011;59598;48.112;16.280;2023-08-31T13:23:09;0.80;;;0.80;;
54787;SDS011;59598;48.112;16.280;2023-08-31T13:25:40;1.90;;;0.90;;
54787;SDS011;59598;48.112;16.280;2023-08-31T13:28:12;0.80;;;0.80;;
54787;SDS011;59598;48.112;16.280;2023-08-31T13:30:45;1.23;;;0.80;;
54787;SDS011;59598;48.112;16.280;2023-08-31T13:33:19;0.80;;;0.80;;
54787;SDS011;59598;48.112;16.280;2023-08-31T13:35:50;3.67;;;0.90;;
54787;SDS011;59598;48.112;16.280;2023-08-31T13:38:22;1.30;;;1.20;;
54787;SDS011;59598;48.112;16.280;2023-08-31T13:40:54;2.08;;;0.88;;
54787;SDS011;59598;48.112;16.280;2023-08-31T13:43:29;1.20;;;1.10;;
54787;SDS011;59598;48.112;16.280;2023-08-31T13:46:00;0.90;;;0.82;;
54787;SDS011;59598;48.112;16.280;2023-08-31T13:48:34;1.00;;;0.90;;
54787;SDS011;59598;48.112;16.280;2023-08-31T13:51:08;2.67;;;1.40;;
54787;SDS011;59598;48.112;16.280;2023-08-31T13:53:47;1.15;;;0.95;;
54787;SDS011;59598;48.112;16.280;2023-08-31T13:56:18;1.13;;;1.02;;
54787;SDS011;59598;48.112;16.280;2023-08-31T13:58:51;1.13;;;0.90;;
54787;SDS011;59598;48.112;16.280;2023-08-31T14:01:25;0.80;;;0.80;;
54787;SDS011;59598;48.112;16.280;2023-08-31T14:04:01;1.30;;;1.20;;
54787;SDS011;59598;48.112;16.280;2023-08-31T14:06:34;3.17;;;1.33;;
54787;SDS011;59598;48.112;16.280;2023-08-31T14:09:07;1.58;;;1.02;;
54787;SDS011;59598;48.112;16.280;2023-08-31T14:11:40;1.10;;;0.90;;
54787;SDS011;59598;48.112;16.280;2023-08-31T14:14:11;1.02;;;0.90;;
54787;SDS011;59598;48.112;16.280;2023-08-31T14:16:43;1.05;;;0.90;;
54787;SDS011;59598;48.112;16.280;2023-08-31T14:19:18;1.40;;;1.30;;
54787;SDS011;59598;48.112;16.280;2023-08-31T14:21:50;2.13;;;1.00;;
54787;SDS011;59598;48.112;16.280;2023-08-31T14:24:23;1.00;;;0.90;;
54787;SDS011;59598;48.112;16.280;2023-08-31T14:26:54;1.40;;;1.10;;
54787;SDS011;59598;48.112;16.280;2023-08-31T14:29:25;0.82;;;0.65;;
54787;SDS011;59598;48.112;16.280;2023-08-31T14:31:57;1.70;;;1.17;;
54787;SDS011;59598;48.112;16.280;2023-08-31T14:34:28;1.27;;;0.95;;
54787;SDS011;59598;48.112;16.280;2023-08-31T14:36:59;1.70;;;1.10;;
54787;SDS011;59598;48.112;16.280;2023-08-31T14:39:31;1.00;;;0.90;;
54787;SDS011;59598;48.112;16.280;2023-08-31T14:42:02;1.90;;;1.13;;
54787;SDS011;59598;48.112;16.280;2023-08-31T14:44:33;1.73;;;1.20;;
54787;SDS011;59598;48.112;16.280;2023-08-31T14:47:05;0.93;;;0.90;;
54787;SDS011;59598;48.112;16.280;2023-08-31T14:49:38;1.38;;;1.27;;
54787;SDS011;59598;48.112;16.280;2023-08-31T14:52:09;1.48;;;1.38;;
54787;SDS011;59598;48.112;16.280;2023-08-31T14:54:41;1.48;;;1.17;;
54787;SDS011;59598;48.112;16.280;2023-08-31T14:57:15;1.13;;;1.02;;
54787;SDS011;59598;48.112;16.280;2023-08-31T14:59:47;1.73;;;1.17;;
54787;SDS011;59598;48.112;16.280;2023-08-31T15:02:18;1.88;;;0.93;;
54787;SDS011;59598;48.112;16.280;2023-08-31T15:04:52;1.35;;;1.08;;
54787;SDS011;59598;48.112;16.280;2023-08-31T15:07:23;1.35;;;1.20;;
54787;SDS011;59598;48.112;16.280;2023-08-31T15:09:57;1.45;;;1.35;;
54787;SDS011;59598;48.112;16.280;2023-08-31T15:12:30;1.30;;;1.20;;
54787;SDS011;59598;48.112;16.280;2023-08-31T15:15:01;2.17;;;1.33;;
54787;SDS011;59598;48.112;16.280;2023-08-31T15:17:36;1.73;;;1.17;;
54787;SDS011;59598;48.112;16.280;2023-08-31T15:20:10;1.40;;;1.20;;
54787;SDS011;59598;48.112;16.280;2023-08-31T15:22:43;1.27;;;1.15;;
54787;SDS011;59598;48.112;16.280;2023-08-31T15:25:15;1.30;;;1.20;;
54787;SDS011;59598;48.112;16.280;2023-08-31T15:27:49;2.47;;;1.17;;
54787;SDS011;59598;48.112;16.280;2023-08-31T15:30:22;1.30;;;1.20;;
54787;SDS011;59598;48.112;16.280;2023-08-31T15:33:05;4.00;;;1.17;;
54787;SDS011;59598;48.112;16.280;2023-08-31T15:35:37;1.20;;;1.10;;
54787;SDS011;59598;48.112;16.280;2023-08-31T15:38:11;1.65;;;1.20;;
54787;SDS011;59598;48.112;16.280;2023-08-31T15:40:46;1.50;;;1.20;;
54787;SDS011;59598;48.112;16.280;2023-08-31T15:43:17;2.80;;;2.15;;
54787;SDS011;59598;48.112;16.280;2023-08-31T15:45:49;1.15;;;1.05;;
54787;SDS011;59598;48.112;16.280;2023-08-31T15:48:20;1.20;;;1.10;;
54787;SDS011;59598;48.112;16.280;2023-08-31T15:50:52;1.83;;;1.40;;
54787;SDS011;59598;48.112;16.280;2023-08-31T15:53:26;3.08;;;1.10;;
54787;SDS011;59598;48.112;16.280;2023-08-31T15:56:01;1.15;;;1.05;;